Weather at Venice Marco Polo Airport

Public forecast

Using degrees Celsius for public forecast. Weather courtesy of forecast.io.

Current aviation weather report (METAR) for Venice Marco Polo Airport

Retrieved 2020/10/25 04:20 UTC (0 seconds ago):

LIPZ 250420Z 31004KT 7000 NSC 12/12 Q1015 NOSIG

Aviation forecast (TAF) for Venice Marco Polo Airport

Retrieved 2020-10-25 00:00 UTC (4 hours ago):

TAF LIPZ 242300Z 2500/2606 VRB05KT 2000 BR SCT020 TEMPO 2502/2507 0600 FG BKN003 BECMG 2508/2510 6000 BECMG 2518/2521 3000 BR